Time;durP1;ratioP1;P1;durP2;ratioP2;P2;SDS_P1;SDS_P2;PMS_P1;PMS_P2;Temp;Humidity;BMP_temperature;BMP_pressure;BME280_temperature;BME280_humidity;BME280_pressure;Samples;Min_cycle;Max_cycle;Signal;HPM_P1;HPM_P2
2023/05/06 00:00:37;;;;;;;8.57;7.20;;;12.40;99.90;;;;;;5006238;28;20507;-82
2023/05/06 00:03:03;;;;;;;7.35;6.63;;;12.40;99.90;;;;;;5039433;28;20124;-82
2023/05/06 00:05:29;;;;;;;14.35;9.65;;;12.30;99.90;;;;;;5038912;28;20131;-82
2023/05/06 00:07:55;;;;;;;11.43;7.88;;;12.30;99.90;;;;;;5031022;28;20165;-82
2023/05/06 00:10:20;;;;;;;8.90;7.22;;;12.30;99.90;;;;;;5039001;28;20032;-82
2023/05/06 00:12:46;;;;;;;7.00;6.30;;;12.30;99.90;;;;;;5055451;28;20055;-82
2023/05/06 00:15:12;;;;;;;7.80;6.95;;;12.20;99.90;;;;;;5022328;28;20040;-82
2023/05/06 00:17:37;;;;;;;7.55;6.57;;;12.20;99.90;;;;;;5039065;28;20040;-82
2023/05/06 00:20:04;;;;;;;8.07;6.28;;;12.20;99.90;;;;;;5038783;28;20090;-82
2023/05/06 00:22:29;;;;;;;7.43;6.72;;;12.10;99.90;;;;;;5054737;28;20040;-82
2023/05/06 00:24:55;;;;;;;12.45;7.88;;;12.10;99.90;;;;;;5054675;28;20036;-82
2023/05/06 00:27:21;;;;;;;87.55;14.35;;;12.00;99.90;;;;;;5037920;28;20693;-82
2023/05/06 00:29:46;;;;;;;8.88;7.20;;;11.90;99.90;;;;;;5037379;28;20048;-82
2023/05/06 00:32:12;;;;;;;8.10;7.30;;;11.80;99.90;;;;;;5055321;28;20045;-82
2023/05/06 00:34:37;;;;;;;8.90;7.30;;;11.80;99.90;;;;;;5021981;28;20043;-82
2023/05/06 00:37:03;;;;;;;10.20;7.38;;;11.70;99.90;;;;;;5054688;28;20043;-82
2023/05/06 00:39:29;;;;;;;8.93;7.57;;;11.70;99.90;;;;;;5020135;28;20045;-82
2023/05/06 00:42:02;;;;;;;8.50;7.60;;;11.70;99.90;;;;;;5055135;28;20056;-82
2023/05/06 00:44:28;;;;;;;7.85;6.72;;;11.70;99.90;;;;;;5036101;28;20552;-82
2023/05/06 00:46:55;;;;;;;13.60;7.25;;;11.60;99.90;;;;;;5054829;28;20093;-82
2023/05/06 00:49:22;;;;;;;18.15;8.63;;;11.60;99.90;;;;;;5055326;28;20041;-82
2023/05/06 00:51:49;;;;;;;15.38;8.23;;;11.60;99.90;;;;;;5054732;28;20519;-82
2023/05/06 00:54:15;;;;;;;9.30;7.57;;;11.50;99.90;;;;;;5054661;28;20039;-82
2023/05/06 00:56:41;;;;;;;10.35;7.05;;;11.50;99.90;;;;;;5038311;28;20040;-82
2023/05/06 00:59:07;;;;;;;11.88;8.15;;;11.40;99.90;;;;;;5038209;28;20054;-82
2023/05/06 01:01:32;;;;;;;7.88;7.07;;;11.40;99.90;;;;;;5037686;28;20051;-82
2023/05/06 01:03:59;;;;;;;8.77;7.20;;;11.30;99.90;;;;;;5038163;28;20044;-82
2023/05/06 01:06:36;;;;;;;8.15;6.50;;;11.30;99.90;;;;;;5037898;28;20051;-82
2023/05/06 01:09:21;;;;;;;6.25;5.65;;;11.30;99.90;;;;;;5038386;28;20044;-82
2023/05/06 01:11:55;;;;;;;7.78;6.20;;;11.20;99.90;;;;;;5051742;28;20131;-82
2023/05/06 01:14:48;;;;;;;6.53;5.10;;;11.20;99.90;;;;;;5036889;28;20118;-81
2023/05/06 01:17:17;;;;;;;10.85;8.30;;;11.10;99.90;;;;;;5052316;28;20036;-81
2023/05/06 01:19:52;;;;;;;11.07;8.93;;;11.00;99.90;;;;;;5037592;28;20043;-82
2023/05/06 01:22:18;;;;;;;8.45;7.55;;;11.00;99.90;;;;;;5054656;28;20032;-82
2023/05/06 01:24:45;;;;;;;13.15;8.88;;;11.00;99.90;;;;;;5021181;28;20488;-82
2023/05/06 01:27:12;;;;;;;10.70;8.45;;;11.10;99.90;;;;;;5053955;28;20090;-82
2023/05/06 01:29:44;;;;;;;8.55;7.45;;;11.10;99.90;;;;;;5053975;28;20473;-82
2023/05/06 01:32:19;;;;;;;9.60;8.60;;;11.10;99.90;;;;;;5044226;28;20036;-81
2023/05/06 01:35:07;;;;;;;8.13;7.30;;;11.20;99.90;;;;;;5053223;28;20124;-81
2023/05/06 01:38:04;;;;;;;8.75;7.85;;;11.20;99.90;;;;;;5035120;28;20036;-81
2023/05/06 01:40:32;;;;;;;10.30;9.02;;;11.20;99.90;;;;;;5036867;28;20048;-81
2023/05/06 01:43:01;;;;;;;12.00;9.43;;;11.20;99.90;;;;;;5036998;28;20036;-82
2023/05/06 01:45:28;;;;;;;9.75;8.73;;;11.20;99.90;;;;;;5044788;28;20115;-82
2023/05/06 01:47:55;;;;;;;10.05;8.77;;;11.20;99.90;;;;;;5053644;28;20502;-82
2023/05/06 01:50:21;;;;;;;9.60;8.70;;;11.30;99.90;;;;;;5054132;28;20028;-81
2023/05/06 01:52:58;;;;;;;11.82;9.60;;;11.30;99.90;;;;;;5020666;28;20182;-81
2023/05/06 01:55:25;;;;;;;12.30;9.90;;;11.30;99.90;;;;;;5037705;28;20497;-82
2023/05/06 01:57:50;;;;;;;14.10;11.50;;;11.30;99.90;;;;;;5053804;28;20041;-82
2023/05/06 02:00:16;;;;;;;12.73;10.23;;;11.30;99.90;;;;;;5020703;28;20098;-82
2023/05/06 02:02:42;;;;;;;12.55;10.38;;;11.30;99.90;;;;;;5037495;28;20032;-82
2023/05/06 02:05:08;;;;;;;13.73;10.88;;;11.40;99.90;;;;;;5053238;28;20506;-81
2023/05/06 02:07:33;;;;;;;14.95;11.30;;;11.30;99.90;;;;;;5053353;28;20119;-82
2023/05/06 02:09:59;;;;;;;13.68;10.45;;;11.30;99.90;;;;;;5053595;28;20037;-82
2023/05/06 02:12:25;;;;;;;12.98;11.00;;;11.30;99.90;;;;;;5036527;28;20037;-81
2023/05/06 02:14:50;;;;;;;13.77;11.38;;;11.30;99.90;;;;;;5037234;28;20462;-81
2023/05/06 02:17:16;;;;;;;14.32;11.02;;;11.30;99.90;;;;;;5053621;28;20044;-81
2023/05/06 02:19:42;;;;;;;13.23;11.60;;;11.20;99.90;;;;;;5020533;28;20037;-82
2023/05/06 02:22:07;;;;;;;14.38;11.93;;;11.20;99.90;;;;;;5020564;28;20483;-81
2023/05/06 02:24:33;;;;;;;12.27;10.65;;;11.20;99.90;;;;;;5020142;28;20035;-82
2023/05/06 02:26:59;;;;;;;26.48;9.45;;;11.20;99.90;;;;;;5016382;28;20028;-82
2023/05/06 02:29:24;;;;;;;83.72;14.00;;;11.10;99.90;;;;;;5051457;28;20052;-82
2023/05/06 02:31:50;;;;;;;17.77;10.93;;;11.00;99.90;;;;;;5036303;28;20079;-82
2023/05/06 02:34:16;;;;;;;14.13;10.80;;;10.90;99.90;;;;;;5036365;28;20029;-81
2023/05/06 02:36:41;;;;;;;19.52;12.55;;;10.90;99.90;;;;;;5036791;28;20086;-81
2023/05/06 02:39:07;;;;;;;59.47;12.18;;;10.80;99.90;;;;;;5052626;28;20045;-81
2023/05/06 02:41:33;;;;;;;10.33;9.07;;;10.80;99.90;;;;;;5020087;28;20047;-81
2023/05/06 02:43:58;;;;;;;10.18;9.18;;;10.80;99.90;;;;;;5036848;28;20051;-81
2023/05/06 02:46:24;;;;;;;14.30;10.65;;;10.80;99.90;;;;;;5037953;28;20472;-81
2023/05/06 02:48:50;;;;;;;17.13;12.27;;;10.80;99.90;;;;;;5040658;28;20040;-81
2023/05/06 02:51:16;;;;;;;16.50;12.55;;;10.70;99.90;;;;;;5024044;28;20079;-81
2023/05/06 02:53:41;;;;;;;16.02;12.07;;;10.70;99.90;;;;;;5024447;28;20107;-81
2023/05/06 02:56:07;;;;;;;15.37;11.97;;;10.70;99.90;;;;;;5024106;28;20518;-81
2023/05/06 02:58:33;;;;;;;22.60;13.05;;;10.70;99.90;;;;;;5057802;28;20036;-82
2023/05/06 03:00:58;;;;;;;67.90;16.98;;;10.70;99.90;;;;;;5023873;28;20036;-82
2023/05/06 03:03:24;;;;;;;16.47;13.27;;;10.60;99.90;;;;;;5023969;28;20072;-82
2023/05/06 03:05:50;;;;;;;38.47;14.32;;;10.60;99.90;;;;;;5040212;28;20037;-82
2023/05/06 03:08:15;;;;;;;51.28;15.07;;;10.60;99.90;;;;;;5040261;28;20037;-82
2023/05/06 03:10:41;;;;;;;44.67;12.83;;;10.60;99.90;;;;;;5056938;28;20094;-82
2023/05/06 03:13:07;;;;;;;15.50;11.37;;;10.60;99.90;;;;;;5056307;28;20128;-82
2023/05/06 03:15:32;;;;;;;36.33;14.20;;;10.60;99.90;;;;;;5040254;28;20308;-82
2023/05/06 03:17:58;;;;;;;147.03;26.20;;;10.50;99.90;;;;;;5039494;28;20701;-82
2023/05/06 03:20:24;;;;;;;19.90;12.37;;;10.50;99.90;;;;;;5056340;28;20373;-82
2023/05/06 03:22:50;;;;;;;12.93;11.57;;;10.40;99.90;;;;;;5023450;28;20043;-82
2023/05/06 03:25:16;;;;;;;15.20;11.37;;;10.40;99.90;;;;;;5024209;28;20052;-82
2023/05/06 03:27:42;;;;;;;70.10;14.90;;;10.40;99.90;;;;;;5039943;28;20040;-82
2023/05/06 03:30:08;;;;;;;105.28;16.80;;;10.40;99.90;;;;;;5056154;28;20080;-82
2023/05/06 03:32:34;;;;;;;23.33;10.20;;;10.40;99.90;;;;;;5056612;28;20060;-82
2023/05/06 03:35:00;;;;;;;42.08;12.10;;;10.30;99.90;;;;;;5022826;28;20075;-82
2023/05/06 03:37:25;;;;;;;28.80;12.00;;;10.40;99.90;;;;;;5023585;28;20048;-82
2023/05/06 03:39:51;;;;;;;53.03;13.52;;;10.30;99.90;;;;;;5040111;28;20032;-82
2023/05/06 03:42:17;;;;;;;38.70;13.13;;;10.40;99.90;;;;;;5006879;28;20043;-81
2023/05/06 03:44:42;;;;;;;26.73;11.60;;;10.40;99.90;;;;;;5039578;28;20451;-82
2023/05/06 03:47:08;;;;;;;84.20;15.03;;;10.40;99.90;;;;;;5055784;28;20041;-82
2023/05/06 03:49:34;;;;;;;32.80;11.80;;;10.40;99.90;;;;;;5039109;28;20587;-82
2023/05/06 03:51:59;;;;;;;37.20;11.67;;;10.40;99.90;;;;;;5039126;28;20047;-82
2023/05/06 03:54:25;;;;;;;66.53;14.27;;;10.40;99.90;;;;;;5055647;28;20093;-82
2023/05/06 03:56:51;;;;;;;46.90;12.83;;;10.40;99.90;;;;;;5038635;28;20654;-82
2023/05/06 03:59:16;;;;;;;28.83;11.30;;;10.40;99.90;;;;;;5055761;28;20045;-82
2023/05/06 04:01:42;;;;;;;18.93;10.27;;;10.30;99.90;;;;;;5017838;28;20044;-83
2023/05/06 04:04:08;;;;;;;23.20;10.33;;;10.30;99.90;;;;;;5014214;28;20385;-82
2023/05/06 04:06:33;;;;;;;42.03;11.13;;;10.30;99.90;;;;;;5055874;28;20040;-82
2023/05/06 04:08:59;;;;;;;64.53;12.53;;;10.30;99.90;;;;;;5039271;28;20044;-83
2023/05/06 04:11:25;;;;;;;79.27;15.27;;;10.30;99.90;;;;;;5039366;28;20048;-83
2023/05/06 04:13:50;;;;;;;104.93;15.47;;;10.30;99.90;;;;;;5055660;28;20037;-83
2023/05/06 04:16:16;;;;;;;125.17;15.97;;;10.30;99.90;;;;;;5055259;28;20119;-83
2023/05/06 04:18:42;;;;;;;154.27;15.43;;;10.20;99.90;;;;;;5036949;28;20037;-83
2023/05/06 04:21:10;;;;;;;115.87;13.60;;;10.20;99.90;;;;;;5038422;28;20140;-83
2023/05/06 04:23:37;;;;;;;132.73;13.30;;;10.20;99.90;;;;;;5022606;28;20040;-83
2023/05/06 04:26:03;;;;;;;103.67;11.60;;;10.10;99.90;;;;;;5006616;28;20048;-83
2023/05/06 04:28:28;;;;;;;101.10;11.43;;;10.00;99.90;;;;;;5038683;28;20420;-83
2023/05/06 04:30:55;;;;;;;92.07;10.17;;;10.00;99.90;;;;;;5022372;28;20135;-83
2023/05/06 04:33:21;;;;;;;48.67;7.93;;;10.00;99.90;;;;;;5039001;28;20115;-83
2023/05/06 04:35:53;;;;;;;39.63;7.77;;;9.90;99.90;;;;;;5054324;28;20116;-83
2023/05/06 04:38:24;;;;;;;32.93;7.23;;;10.00;99.90;;;;;;5038830;28;20071;-83
2023/05/06 04:40:50;;;;;;;48.10;7.90;;;10.00;99.90;;;;;;5055590;28;20369;-83
2023/05/06 04:43:17;;;;;;;14.40;6.77;;;10.00;99.90;;;;;;5055875;28;20046;-83
2023/05/06 04:45:48;;;;;;;17.53;6.33;;;10.00;99.90;;;;;;5038173;28;20543;-83
2023/05/06 04:48:21;;;;;;;18.48;6.78;;;10.00;99.90;;;;;;5022985;28;20781;-83
2023/05/06 04:50:47;;;;;;;6.27;5.57;;;10.10;99.90;;;;;;5031858;28;20399;-83
2023/05/06 04:53:14;;;;;;;6.50;5.80;;;10.10;99.90;;;;;;5038008;28;20040;-83
2023/05/06 04:55:39;;;;;;;6.93;6.23;;;10.10;99.90;;;;;;5038820;28;20543;-83
2023/05/06 04:58:06;;;;;;;30.73;8.23;;;10.20;99.90;;;;;;5054705;28;20124;-83
2023/05/06 05:00:32;;;;;;;12.73;6.80;;;10.20;99.90;;;;;;5038426;28;20076;-83
2023/05/06 05:02:58;;;;;;;34.53;8.83;;;10.20;99.90;;;;;;5021477;28;20490;-83
2023/05/06 05:05:26;;;;;;;13.47;7.57;;;10.30;99.90;;;;;;5054831;28;20040;-83
2023/05/06 05:07:51;;;;;;;24.23;9.10;;;10.30;99.90;;;;;;5022282;28;20049;-83
2023/05/06 05:10:17;;;;;;;23.23;8.00;;;10.40;99.90;;;;;;5053630;28;20047;-84
2023/05/06 05:12:43;;;;;;;14.77;8.20;;;10.40;99.90;;;;;;5054876;28;20040;-83
2023/05/06 05:15:09;;;;;;;77.53;12.27;;;10.40;99.90;;;;;;5038122;28;20033;-83
2023/05/06 05:17:34;;;;;;;32.03;10.10;;;10.40;99.90;;;;;;5054643;28;20060;-83
2023/05/06 05:20:00;;;;;;;17.97;8.30;;;10.40;99.90;;;;;;5021508;28;20044;-83
2023/05/06 05:22:26;;;;;;;10.57;7.50;;;10.50;99.90;;;;;;5018793;28;20037;-83
2023/05/06 05:24:51;;;;;;;8.43;7.17;;;10.60;99.90;;;;;;5003542;28;20044;-84
2023/05/06 05:27:17;;;;;;;10.70;7.63;;;10.60;99.90;;;;;;5001920;28;20571;-83
2023/05/06 05:29:43;;;;;;;9.33;8.30;;;10.60;99.90;;;;;;5037746;28;20064;-83
2023/05/06 05:32:08;;;;;;;8.83;8.00;;;10.70;99.90;;;;;;5038032;28;20055;-84
2023/05/06 05:34:34;;;;;;;9.43;8.50;;;10.70;99.90;;;;;;5021317;28;20121;-83
2023/05/06 05:37:00;;;;;;;10.67;9.30;;;10.80;99.90;;;;;;5021058;28;20032;-83
2023/05/06 05:39:25;;;;;;;9.60;8.70;;;10.80;99.90;;;;;;5037242;28;20431;-83
2023/05/06 05:41:51;;;;;;;8.13;7.43;;;10.90;99.90;;;;;;5037614;28;20113;-84
2023/05/06 05:44:16;;;;;;;11.10;7.23;;;10.90;99.90;;;;;;5021452;28;20127;-83
2023/05/06 05:46:42;;;;;;;8.80;7.90;;;10.90;99.90;;;;;;5021390;28;20049;-83
2023/05/06 05:49:08;;;;;;;9.37;8.57;;;10.80;99.90;;;;;;5037899;28;20048;-83
2023/05/06 05:51:34;;;;;;;9.80;8.80;;;10.80;99.90;;;;;;5037513;28;20040;-84
2023/05/06 05:53:59;;;;;;;9.63;8.73;;;10.80;99.90;;;;;;5037915;28;20120;-84
2023/05/06 05:56:25;;;;;;;9.00;8.20;;;10.80;99.90;;;;;;5004590;28;20052;-83
2023/05/06 05:58:51;;;;;;;9.73;8.77;;;10.80;99.90;;;;;;5021234;28;20032;-83
2023/05/06 06:01:16;;;;;;;9.60;8.70;;;10.80;99.90;;;;;;5050592;28;20414;-83
2023/05/06 06:03:42;;;;;;;9.07;8.20;;;10.70;99.90;;;;;;5036972;28;20081;-83
2023/05/06 06:06:08;;;;;;;9.73;8.93;;;10.70;99.90;;;;;;5035646;28;20040;-83
2023/05/06 06:08:34;;;;;;;10.00;9.00;;;10.70;99.90;;;;;;5051429;28;20041;-83
2023/05/06 06:11:04;;;;;;;10.37;9.37;;;10.70;99.90;;;;;;5053299;28;20082;-83
2023/05/06 06:13:30;;;;;;;10.93;9.93;;;10.70;99.90;;;;;;5021054;28;20086;-83
2023/05/06 06:15:56;;;;;;;10.77;9.73;;;10.70;99.90;;;;;;5032957;28;20032;-83
2023/05/06 06:18:23;;;;;;;12.03;10.83;;;10.80;99.90;;;;;;5036262;28;20033;-83
2023/05/06 06:20:49;;;;;;;12.73;11.43;;;10.80;99.90;;;;;;5020630;28;21602;-83
2023/05/06 06:23:14;;;;;;;14.87;12.77;;;10.80;99.90;;;;;;5036883;28;20123;-82
2023/05/06 06:25:40;;;;;;;14.13;12.73;;;10.80;99.90;;;;;;5035817;28;20119;-82
2023/05/06 06:28:06;;;;;;;16.53;13.23;;;10.90;99.90;;;;;;5036706;28;20118;-82
2023/05/06 06:30:32;;;;;;;14.10;12.63;;;11.10;99.90;;;;;;5036273;28;20461;-82
2023/05/06 06:33:00;;;;;;;14.60;12.97;;;11.30;99.90;;;;;;5052707;28;20051;-82
2023/05/06 06:35:26;;;;;;;15.40;13.60;;;11.50;99.90;;;;;;5036260;28;20118;-83
2023/05/06 06:37:53;;;;;;;15.38;13.13;;;11.60;99.90;;;;;;5036355;28;20060;-82
2023/05/06 06:40:19;;;;;;;14.57;13.00;;;11.70;99.90;;;;;;5036748;28;20040;-82
2023/05/06 06:42:45;;;;;;;15.00;13.50;;;11.80;99.90;;;;;;4992297;28;20041;-82
2023/05/06 06:45:12;;;;;;;15.43;13.83;;;11.90;99.90;;;;;;5052803;28;20044;-82
2023/05/06 06:47:38;;;;;;;15.82;14.25;;;12.00;99.90;;;;;;5036130;28;20044;-82
2023/05/06 06:50:04;;;;;;;16.08;14.38;;;12.20;99.90;;;;;;5052597;28;20036;-82
2023/05/06 06:52:30;;;;;;;19.05;15.93;;;12.30;99.90;;;;;;5035271;28;20102;-82
2023/05/06 06:54:56;;;;;;;18.20;15.32;;;12.40;99.90;;;;;;5033219;28;20033;-82
2023/05/06 06:57:21;;;;;;;16.77;13.98;;;12.40;99.90;;;;;;5020123;28;20043;-82
2023/05/06 06:59:49;;;;;;;17.10;15.27;;;12.50;99.90;;;;;;5036496;28;20536;-82
2023/05/06 07:02:14;;;;;;;17.38;15.30;;;12.50;99.90;;;;;;5020449;28;20357;-82
2023/05/06 07:04:40;;;;;;;17.88;15.02;;;12.60;99.90;;;;;;5053275;28;20039;-82
2023/05/06 07:07:06;;;;;;;19.05;16.42;;;12.60;99.90;;;;;;5035720;28;20568;-82
2023/05/06 07:09:31;;;;;;;19.77;16.45;;;12.70;99.90;;;;;;5019228;28;20033;-82
2023/05/06 07:11:57;;;;;;;17.20;15.35;;;12.70;99.90;;;;;;5036178;28;20399;-82
2023/05/06 07:14:24;;;;;;;21.25;17.63;;;12.70;99.90;;;;;;5034503;28;20044;-81
2023/05/06 07:16:50;;;;;;;20.63;18.33;;;12.80;99.90;;;;;;5034769;28;20119;-81
2023/05/06 07:19:16;;;;;;;22.90;18.17;;;12.90;99.90;;;;;;5035616;28;20178;-81
2023/05/06 07:21:41;;;;;;;21.52;18.40;;;13.00;99.90;;;;;;5052445;28;20041;-82
2023/05/06 07:24:08;;;;;;;22.70;17.77;;;13.00;99.90;;;;;;5034698;28;20625;-81
2023/05/06 07:26:37;;;;;;;22.60;17.42;;;13.10;99.90;;;;;;5051393;28;20044;-81
2023/05/06 07:29:03;;;;;;;21.40;18.35;;;13.10;99.90;;;;;;5035301;28;20040;-81
2023/05/06 07:31:31;;;;;;;23.67;18.45;;;13.20;99.90;;;;;;5051700;28;20060;-82
2023/05/06 07:33:57;;;;;;;22.02;18.13;;;13.20;99.90;;;;;;5039431;28;20565;-82
2023/05/06 07:36:23;;;;;;;23.13;18.58;;;13.20;99.90;;;;;;5039939;28;20127;-82
2023/05/06 07:38:49;;;;;;;23.33;18.92;;;13.30;99.90;;;;;;5055856;28;20042;-81
2023/05/06 07:41:15;;;;;;;23.80;20.23;;;13.40;99.90;;;;;;5038944;28;20040;-82
2023/05/06 07:43:41;;;;;;;25.75;20.88;;;13.40;99.90;;;;;;5055725;28;20040;-81
2023/05/06 07:46:07;;;;;;;24.23;19.75;;;13.50;99.90;;;;;;5038998;28;20052;-82
2023/05/06 07:48:32;;;;;;;23.02;19.67;;;13.50;99.90;;;;;;5054924;28;20040;-82
2023/05/06 07:50:59;;;;;;;24.13;20.33;;;13.50;99.90;;;;;;5023012;28;20040;-82
2023/05/06 07:53:25;;;;;;;24.73;20.20;;;13.50;99.90;;;;;;5039929;28;20068;-82
2023/05/06 07:55:57;;;;;;;25.63;20.35;;;13.60;99.90;;;;;;5055487;28;20040;-82
2023/05/06 07:58:23;;;;;;;23.60;19.70;;;13.60;99.90;;;;;;5020423;28;20043;-82
2023/05/06 08:00:48;;;;;;;28.20;22.77;;;13.60;99.90;;;;;;5050862;28;20033;-82
2023/05/06 08:03:15;;;;;;;25.70;21.25;;;13.60;99.90;;;;;;5039386;28;20483;-82
2023/05/06 08:05:41;;;;;;;25.00;21.45;;;13.70;99.90;;;;;;5055464;28;20048;-82
2023/05/06 08:08:06;;;;;;;30.77;23.98;;;13.70;99.90;;;;;;5039212;28;20044;-82
2023/05/06 08:10:32;;;;;;;26.48;19.98;;;13.70;99.90;;;;;;5022868;28;20079;-81
2023/05/06 08:12:58;;;;;;;27.80;22.58;;;13.80;99.90;;;;;;5039501;28;21750;-82
2023/05/06 08:15:24;;;;;;;27.73;22.02;;;13.80;99.90;;;;;;5050468;28;20044;-82
2023/05/06 08:17:50;;;;;;;30.70;22.55;;;13.80;99.90;;;;;;5055305;28;20035;-81
2023/05/06 08:20:15;;;;;;;33.47;24.42;;;13.80;99.90;;;;;;5022434;28;20075;-82
2023/05/06 08:22:41;;;;;;;32.38;25.15;;;13.90;99.90;;;;;;5023651;28;20137;-81
2023/05/06 08:25:07;;;;;;;29.40;22.58;;;14.20;99.90;;;;;;5038640;28;20476;-81
2023/05/06 08:27:33;;;;;;;27.92;21.60;;;14.50;99.90;;;;;;5038817;28;20051;-81
2023/05/06 08:29:58;;;;;;;25.70;19.63;;;14.80;99.90;;;;;;5021508;28;20052;-81
2023/05/06 08:32:24;;;;;;;27.15;20.92;;;15.20;99.90;;;;;;5038563;28;20040;-81
2023/05/06 08:34:50;;;;;;;26.60;21.17;;;15.50;99.90;;;;;;5038492;28;20044;-81
2023/05/06 08:37:15;;;;;;;25.10;20.20;;;15.70;99.90;;;;;;5056082;28;20043;-82
2023/05/06 08:39:41;;;;;;;25.50;19.73;;;15.90;99.90;;;;;;5054828;28;20033;-81
2023/05/06 08:42:10;;;;;;;22.33;18.55;;;16.00;99.90;;;;;;5038437;28;20127;-81
2023/05/06 08:44:36;;;;;;;22.75;18.67;;;16.10;99.90;;;;;;5054864;28;20063;-81
2023/05/06 08:47:01;;;;;;;21.38;17.27;;;16.20;99.90;;;;;;5038141;28;21527;-81
2023/05/06 08:49:27;;;;;;;18.80;15.23;;;16.50;99.90;;;;;;5037338;28;20541;-81
2023/05/06 08:51:54;;;;;;;18.42;15.02;;;16.60;99.90;;;;;;5054223;28;20036;-81
2023/05/06 08:54:23;;;;;;;18.20;15.13;;;16.70;99.90;;;;;;5037667;28;20094;-81
2023/05/06 08:56:52;;;;;;;20.00;16.55;;;16.80;99.90;;;;;;5054266;28;20388;-81
2023/05/06 08:59:25;;;;;;;19.15;16.17;;;16.90;99.90;;;;;;5052713;28;20391;-80
2023/05/06 09:01:52;;;;;;;19.90;15.95;;;17.10;99.90;;;;;;5053684;28;20078;-81
2023/05/06 09:04:18;;;;;;;18.45;15.20;;;17.20;99.90;;;;;;5054198;28;20038;-81
2023/05/06 09:06:44;;;;;;;17.15;14.25;;;17.30;99.90;;;;;;5037714;28;20041;-80
2023/05/06 09:09:11;;;;;;;16.08;14.30;;;17.40;99.90;;;;;;5054001;28;20036;-81
2023/05/06 09:11:37;;;;;;;20.38;16.73;;;17.40;99.90;;;;;;5053425;28;20040;-81
2023/05/06 09:14:16;;;;;;;22.83;17.08;;;17.60;99.90;;;;;;5018280;28;20044;-82
2023/05/06 09:16:44;;;;;;;18.40;15.10;;;17.80;99.90;;;;;;5038139;28;20365;-82
2023/05/06 09:19:11;;;;;;;21.10;17.30;;;17.80;99.90;;;;;;5037759;28;20041;-82
2023/05/06 09:21:38;;;;;;;20.05;15.65;;;17.90;99.90;;;;;;5054275;28;20044;-81
2023/05/06 09:24:06;;;;;;;20.08;16.42;;;17.90;99.90;;;;;;5054217;28;20036;-82
2023/05/06 09:26:33;;;;;;;20.52;16.88;;;17.90;99.90;;;;;;5037832;28;20080;-82
2023/05/06 09:29:00;;;;;;;19.50;16.08;;;18.00;99.90;;;;;;5038245;28;20078;-81
2023/05/06 09:31:26;;;;;;;19.33;15.82;;;18.20;99.90;;;;;;5053994;28;20080;-82
2023/05/06 09:33:53;;;;;;;21.40;16.00;;;18.30;99.90;;;;;;5037850;28;20039;-82
2023/05/06 09:36:19;;;;;;;19.33;16.13;;;18.40;99.90;;;;;;5037651;28;20392;-82
2023/05/06 09:38:46;;;;;;;19.40;16.00;;;18.40;99.90;;;;;;5054263;28;20041;-82
2023/05/06 09:41:13;;;;;;;20.10;16.05;;;18.40;99.90;;;;;;5054148;28;20131;-82
2023/05/06 09:43:43;;;;;;;22.30;15.65;;;18.50;99.90;;;;;;5054100;28;20075;-82
2023/05/06 09:46:11;;;;;;;20.58;15.52;;;18.60;99.90;;;;;;5059302;28;20544;-82
2023/05/06 09:48:37;;;;;;;19.58;14.98;;;18.70;99.90;;;;;;5052879;28;20071;-82
2023/05/06 09:51:03;;;;;;;18.38;14.30;;;18.80;99.90;;;;;;5054093;28;20060;-82
2023/05/06 09:53:31;;;;;;;20.65;15.80;;;18.90;99.90;;;;;;5037396;28;20174;-82
2023/05/06 09:55:59;;;;;;;18.30;14.07;;;18.90;99.90;;;;;;5036805;28;20045;-82
2023/05/06 09:58:26;;;;;;;18.38;14.85;;;18.90;99.90;;;;;;5053561;28;20124;-82
2023/05/06 10:00:53;;;;;;;17.67;14.30;;;19.10;99.90;;;;;;5053703;28;20044;-82
2023/05/06 10:03:20;;;;;;;17.17;13.10;;;19.10;99.90;;;;;;5036936;28;20044;-82
2023/05/06 10:05:46;;;;;;;18.23;13.93;;;19.00;99.90;;;;;;5053517;28;20070;-82
2023/05/06 10:08:17;;;;;;;17.48;14.05;;;18.80;99.90;;;;;;5037642;28;20076;-82
2023/05/06 10:10:44;;;;;;;17.15;13.95;;;18.80;99.90;;;;;;5053704;28;20075;-82
2023/05/06 10:13:10;;;;;;;17.25;12.77;;;18.80;99.90;;;;;;5047224;28;20396;-82
2023/05/06 10:15:37;;;;;;;17.58;13.43;;;18.90;99.90;;;;;;5053162;28;20029;-82
2023/05/06 10:18:06;;;;;;;15.05;11.95;;;19.10;99.90;;;;;;5036959;28;20048;-82
2023/05/06 10:20:34;;;;;;;17.58;13.27;;;19.30;99.90;;;;;;5037131;28;20523;-82
2023/05/06 10:23:11;;;;;;;16.35;12.20;;;19.20;99.90;;;;;;5036937;28;20041;-82
2023/05/06 10:25:42;;;;;;;16.20;12.10;;;19.10;99.90;;;;;;5051600;28;20071;-83
2023/05/06 10:28:10;;;;;;;15.65;11.45;;;19.00;99.90;;;;;;5022648;28;20369;-83
2023/05/06 10:30:37;;;;;;;15.18;11.02;;;19.10;99.90;;;;;;5052742;28;20522;-82
2023/05/06 10:33:09;;;;;;;15.75;11.00;;;19.40;99.90;;;;;;5036212;28;20041;-83
2023/05/06 10:35:48;;;;;;;14.52;10.77;;;19.50;99.90;;;;;;5052929;28;20033;-82
2023/05/06 10:38:16;;;;;;;16.30;10.93;;;19.80;99.90;;;;;;5027083;28;20048;-82
2023/05/06 10:40:43;;;;;;;14.77;11.13;;;19.70;99.90;;;;;;5036490;28;20041;-83
2023/05/06 10:43:27;;;;;;;16.00;12.82;;;19.60;99.90;;;;;;5053296;28;20395;-82
2023/05/06 10:46:01;;;;;;;14.90;12.10;;;19.50;99.90;;;;;;5034668;28;20560;-83
2023/05/06 10:48:28;;;;;;;19.15;14.80;;;19.50;99.90;;;;;;5036557;28;20041;-83
2023/05/06 10:51:16;;;;;;;20.45;15.60;;;19.40;99.90;;;;;;5053109;28;20047;-83
2023/05/06 10:53:54;;;;;;;22.95;17.25;;;19.20;99.90;;;;;;5048914;28;20040;-83
2023/05/06 10:56:20;;;;;;;25.67;20.05;;;19.00;99.90;;;;;;5049221;28;20484;-83
2023/05/06 10:58:49;;;;;;;25.00;19.23;;;18.80;99.90;;;;;;5036640;28;20085;-83
2023/05/06 11:01:15;;;;;;;22.70;17.35;;;18.70;99.90;;;;;;5052963;28;20045;-83
2023/05/06 11:03:44;;;;;;;23.25;18.08;;;18.60;99.90;;;;;;5036748;28;20093;-83
2023/05/06 11:06:10;;;;;;;24.58;17.42;;;18.50;99.90;;;;;;5019626;28;20487;-82
2023/05/06 11:08:36;;;;;;;21.17;17.17;;;18.40;99.90;;;;;;5022585;28;20043;-83
2023/05/06 11:11:40;;;;;;;21.23;17.27;;;18.40;99.90;;;;;;5040331;28;20032;-83
2023/05/06 11:14:13;;;;;;;19.10;15.13;;;18.50;99.90;;;;;;5056557;28;20127;-82
2023/05/06 11:16:49;;;;;;;19.75;16.20;;;18.80;99.90;;;;;;5040149;28;20036;-82
2023/05/06 11:19:41;;;;;;;18.95;15.35;;;19.20;99.90;;;;;;5054928;28;20446;-82
2023/05/06 11:22:07;;;;;;;;;;;19.30;99.90;;;;;;5036027;28;20052;-83
2023/05/06 11:24:41;;;;;;;20.30;15.32;;;19.20;99.90;;;;;;5039367;28;20010;-82
2023/05/06 11:27:09;;;;;;;20.20;15.68;;;19.20;99.90;;;;;;5039422;28;20044;-83
2023/05/06 11:29:36;;;;;;;19.20;15.85;;;19.10;99.90;;;;;;5018274;28;20511;-84
2023/05/06 11:32:04;;;;;;;20.10;16.33;;;19.00;99.90;;;;;;5039847;28;20037;-83
2023/05/06 11:34:31;;;;;;;22.60;16.10;;;19.00;99.90;;;;;;5039828;28;20384;-83
2023/05/06 11:37:04;;;;;;;17.65;15.32;;;18.80;99.90;;;;;;5036425;28;20040;-83
2023/05/06 11:39:32;;;;;;;20.17;16.15;;;18.70;99.90;;;;;;5039965;28;20036;-83
2023/05/06 11:42:07;;;;;;;17.58;15.52;;;18.60;99.90;;;;;;5039906;28;20051;-81
2023/05/06 11:44:38;;;;;;;16.85;14.75;;;18.50;99.90;;;;;;5035659;28;20126;-82
2023/05/06 11:47:06;;;;;;;15.88;13.73;;;18.40;99.90;;;;;;5056685;28;20040;-82
2023/05/06 11:49:40;;;;;;;17.10;13.73;;;18.30;99.90;;;;;;5056113;28;20560;-82
2023/05/06 11:52:07;;;;;;;14.88;13.25;;;18.30;99.90;;;;;;5039379;28;20045;-82
2023/05/06 11:54:35;;;;;;;17.05;14.60;;;18.30;99.90;;;;;;5056132;28;20028;-82
2023/05/06 11:57:02;;;;;;;14.10;12.65;;;18.30;99.90;;;;;;5039411;28;20085;-82
2023/05/06 11:59:46;;;;;;;13.88;12.38;;;18.40;99.90;;;;;;5023256;28;20047;-83
2023/05/06 12:02:13;;;;;;;16.42;12.70;;;18.50;99.90;;;;;;5019691;28;20049;-82
2023/05/06 12:04:40;;;;;;;14.05;11.93;;;18.70;99.90;;;;;;5055953;28;20052;-82
2023/05/06 12:07:08;;;;;;;13.60;12.20;;;18.90;99.90;;;;;;5039044;28;20045;-82
2023/05/06 12:09:35;;;;;;;13.80;12.15;;;19.00;99.90;;;;;;5055973;28;20056;-82
2023/05/06 12:12:02;;;;;;;18.02;13.55;;;19.10;99.90;;;;;;5038738;28;20041;-82
2023/05/06 12:14:28;;;;;;;16.27;13.00;;;19.10;99.90;;;;;;5039067;28;20549;-82
2023/05/06 12:16:55;;;;;;;14.88;13.02;;;19.10;99.90;;;;;;5038788;28;20086;-82
2023/05/06 12:19:21;;;;;;;17.40;13.48;;;19.10;99.90;;;;;;5055468;28;20353;-82
2023/05/06 12:21:47;;;;;;;17.13;13.00;;;19.10;99.90;;;;;;5055802;28;20727;-82
2023/05/06 12:24:13;;;;;;;16.63;13.25;;;19.10;99.90;;;;;;5039255;28;20056;-82
2023/05/06 12:26:46;;;;;;;15.60;12.23;;;19.20;99.90;;;;;;5039163;28;20032;-82
2023/05/06 12:29:16;;;;;;;13.70;10.93;;;19.20;99.90;;;;;;5049987;28;20044;-82
2023/05/06 12:31:46;;;;;;;14.02;10.63;;;19.10;99.90;;;;;;5055574;28;20083;-83